Time;durP1;ratioP1;P1;durP2;ratioP2;P2;SDS_P1;SDS_P2;PMS_P1;PMS_P2;Temp;Humidity;BMP_temperature;BMP_pressure;BME280_temperature;BME280_humidity;BME280_pressure;Samples;Min_cycle;Max_cycle;Signal;HPM_P1;HPM_P2
2023/01/15 00:01:35;;;;;;;0.40;0.20;;;7.00;99.90;;;;;;5071986;28;20043;-79
2023/01/15 00:04:02;;;;;;;1.42;0.22;;;6.90;99.90;;;;;;5074346;28;20056;-79
2023/01/15 00:06:28;;;;;;;2.75;0.55;;;7.00;99.90;;;;;;5070953;28;20600;-79
2023/01/15 00:08:54;;;;;;;2.45;0.93;;;7.00;99.90;;;;;;5057486;28;20366;-79
2023/01/15 00:11:20;;;;;;;0.10;0.10;;;6.90;99.90;;;;;;5074331;28;20571;-79
2023/01/15 00:13:46;;;;;;;3.88;0.60;;;6.90;99.90;;;;;;5056162;28;20078;-79
2023/01/15 00:16:20;;;;;;;1.90;0.50;;;6.90;99.90;;;;;;5052822;28;20048;-79
2023/01/15 00:18:51;;;;;;;2.17;0.43;;;7.00;99.90;;;;;;5078399;28;20513;-79
2023/01/15 00:21:16;;;;;;;0.55;0.10;;;6.90;99.90;;;;;;5075646;28;20206;-79
2023/01/15 00:29:13;;;;;;;3.10;0.80;;;6.90;99.90;;;;;;5073687;28;20148;-79
2023/01/15 00:31:39;;;;;;;1.48;0.60;;;6.90;99.90;;;;;;5074021;28;20044;-79
2023/01/15 00:34:05;;;;;;;1.17;0.50;;;6.90;99.90;;;;;;5069631;28;20036;-79
2023/01/15 00:36:32;;;;;;;4.15;0.60;;;6.90;99.90;;;;;;5065875;28;20099;-79
2023/01/15 00:38:58;;;;;;;3.85;0.40;;;6.90;99.90;;;;;;5072183;28;20032;-79
2023/01/15 00:41:23;;;;;;;0.20;0.20;;;6.90;99.90;;;;;;5070729;28;20093;-79
2023/01/15 00:43:49;;;;;;;2.08;0.38;;;6.90;99.90;;;;;;5073202;28;20540;-79
2023/01/15 00:46:15;;;;;;;0.40;0.25;;;6.90;99.90;;;;;;5071674;28;20054;-79
2023/01/15 00:48:40;;;;;;;3.30;0.65;;;6.90;99.90;;;;;;5071378;28;20444;-79
2023/01/15 00:51:06;;;;;;;1.15;0.28;;;6.90;99.90;;;;;;5067069;28;20958;-79
2023/01/15 00:53:31;;;;;;;2.72;0.70;;;6.90;99.90;;;;;;5055421;28;20082;-79
2023/01/15 00:55:57;;;;;;;1.02;0.60;;;6.90;99.90;;;;;;5064211;28;20113;-79
2023/01/15 00:58:23;;;;;;;2.25;0.70;;;6.90;99.90;;;;;;5072916;28;20043;-79
2023/01/15 01:00:57;;;;;;;6.93;0.45;;;6.90;99.90;;;;;;5073638;28;20043;-79
2023/01/15 01:03:23;;;;;;;2.63;0.43;;;6.90;99.90;;;;;;5069090;28;20546;-79
2023/01/15 01:05:49;;;;;;;1.35;0.20;;;6.90;99.90;;;;;;5052741;28;20044;-79
2023/01/15 01:08:15;;;;;;;2.38;0.60;;;6.90;99.90;;;;;;5078871;28;20039;-79
2023/01/15 01:10:41;;;;;;;1.85;0.68;;;6.90;99.90;;;;;;5074992;28;20645;-79
2023/01/15 01:13:06;;;;;;;0.63;0.30;;;6.90;99.90;;;;;;5088480;28;20048;-79
2023/01/15 01:15:33;;;;;;;0.95;0.30;;;6.90;99.90;;;;;;5071352;28;20070;-79
2023/01/15 01:17:59;;;;;;;1.55;0.55;;;6.90;99.90;;;;;;5072804;28;20039;-79
2023/01/15 01:20:25;;;;;;;2.00;0.88;;;6.90;99.90;;;;;;5074471;28;20040;-79
2023/01/15 01:22:51;;;;;;;2.72;0.65;;;6.90;99.90;;;;;;5065374;28;20178;-79
2023/01/15 01:25:18;;;;;;;0.38;0.25;;;6.90;99.90;;;;;;5070575;28;20047;-79
2023/01/15 01:27:45;;;;;;;0.98;0.40;;;6.90;99.90;;;;;;5060079;28;20043;-79
2023/01/15 01:30:11;;;;;;;0.57;0.22;;;6.90;99.90;;;;;;5068139;28;20048;-78
2023/01/15 01:32:37;;;;;;;1.00;0.30;;;6.90;99.90;;;;;;5054508;28;20083;-79
2023/01/15 01:35:03;;;;;;;1.30;1.13;;;6.90;99.90;;;;;;5067522;28;20148;-79
2023/01/15 01:37:29;;;;;;;1.98;0.85;;;6.90;99.90;;;;;;5102183;27;20032;-79
2023/01/15 01:39:55;;;;;;;1.38;0.40;;;6.90;99.90;;;;;;5052980;28;20082;-79
2023/01/15 01:42:22;;;;;;;2.00;0.68;;;6.90;99.90;;;;;;5073752;28;20039;-79
2023/01/15 01:44:50;;;;;;;1.13;0.50;;;6.90;99.90;;;;;;5071918;28;20477;-79
2023/01/15 01:47:21;;;;;;;2.22;0.60;;;6.90;99.90;;;;;;5071079;28;20036;-79
2023/01/15 01:49:50;;;;;;;4.25;1.35;;;6.90;99.90;;;;;;5069059;28;20028;-79
2023/01/15 01:52:51;;;;;;;0.63;0.20;;;6.90;99.90;;;;;;5071429;28;20074;-79
2023/01/15 01:55:19;;;;;;;3.70;0.45;;;6.80;99.90;;;;;;5046604;28;20591;-79
2023/01/15 01:57:46;;;;;;;0.30;0.20;;;6.80;99.90;;;;;;5071887;28;20032;-79
2023/01/15 02:00:14;;;;;;;0.47;0.15;;;6.80;99.90;;;;;;5075009;28;20036;-79
2023/01/15 02:02:42;;;;;;;1.88;0.52;;;6.80;99.90;;;;;;5072447;28;20072;-79
2023/01/15 02:05:10;;;;;;;4.03;0.40;;;6.90;99.90;;;;;;5070524;28;20063;-79
2023/01/15 02:07:35;;;;;;;0.30;0.20;;;6.80;99.90;;;;;;5071563;28;20044;-79
2023/01/15 02:10:01;;;;;;;1.20;0.52;;;6.80;99.90;;;;;;5071585;28;20037;-79
2023/01/15 02:12:33;;;;;;;2.95;1.30;;;6.80;99.90;;;;;;5069092;28;20528;-79
2023/01/15 02:15:00;;;;;;;4.32;0.55;;;6.80;99.90;;;;;;5070561;28;20934;-79
2023/01/15 02:17:48;;;;;;;1.65;0.40;;;6.80;99.90;;;;;;5059443;28;20054;-79
2023/01/15 02:20:31;;;;;;;1.75;0.35;;;6.80;99.90;;;;;;5072273;28;20036;-79
2023/01/15 02:23:32;;;;;;;0.93;0.50;;;6.80;99.90;;;;;;5057955;28;20041;-79
2023/01/15 02:26:15;;;;;;;0.50;0.13;;;6.80;99.90;;;;;;5072693;28;20040;-79
2023/01/15 02:28:44;;;;;;;0.17;0.15;;;6.80;99.90;;;;;;5067484;28;20090;-79
2023/01/15 02:31:19;;;;;;;2.42;0.55;;;6.80;99.90;;;;;;5083909;28;20799;-79
2023/01/15 02:34:18;;;;;;;0.43;0.20;;;6.80;99.90;;;;;;5082073;28;20383;-79
2023/01/15 02:36:50;;;;;;;3.88;0.50;;;6.80;99.90;;;;;;5101376;28;20111;-79
2023/01/15 02:39:19;;;;;;;2.17;0.35;;;6.80;99.90;;;;;;5083531;28;20063;-79
2023/01/15 02:41:48;;;;;;;0.70;0.50;;;6.80;99.90;;;;;;5096508;28;20052;-79
2023/01/15 02:44:18;;;;;;;1.05;0.40;;;6.80;99.90;;;;;;5064356;28;20032;-79
2023/01/15 02:46:44;;;;;;;4.30;0.55;;;6.80;99.90;;;;;;5084078;28;20516;-78
2023/01/15 02:49:15;;;;;;;1.33;0.50;;;6.80;99.90;;;;;;5082079;28;20039;-79
2023/01/15 02:51:54;;;;;;;1.45;0.50;;;6.80;99.90;;;;;;5069441;28;20390;-79
2023/01/15 02:54:23;;;;;;;4.22;0.45;;;6.80;99.90;;;;;;5077645;28;20044;-79
2023/01/15 02:56:50;;;;;;;2.38;0.52;;;6.80;99.90;;;;;;5085837;28;20497;-79
2023/01/15 02:59:24;;;;;;;3.40;0.55;;;6.80;99.90;;;;;;5067848;28;20048;-79
2023/01/15 03:02:02;;;;;;;5.32;0.70;;;6.80;99.90;;;;;;5114887;27;20056;-79
2023/01/15 03:04:28;;;;;;;1.75;0.40;;;6.70;99.90;;;;;;5085493;28;20036;-79
2023/01/15 03:07:10;;;;;;;0.85;0.32;;;6.80;99.90;;;;;;5089918;28;20035;-79
2023/01/15 03:09:36;;;;;;;2.92;0.47;;;6.80;99.90;;;;;;5093319;28;20056;-79
2023/01/15 03:12:27;;;;;;;1.52;0.60;;;6.80;99.90;;;;;;5069190;28;20039;-79
2023/01/15 03:15:07;;;;;;;0.38;0.13;;;6.80;99.90;;;;;;5067036;28;20086;-79
2023/01/15 03:18:00;;;;;;;0.50;0.40;;;6.80;99.90;;;;;;5083480;28;20042;-79
2023/01/15 03:20:28;;;;;;;7.57;0.80;;;6.80;99.90;;;;;;5081485;28;20047;-79
2023/01/15 03:23:02;;;;;;;3.65;0.60;;;6.80;99.90;;;;;;5065267;28;20032;-79
2023/01/15 03:25:33;;;;;;;0.45;0.30;;;6.80;99.90;;;;;;5085745;28;20059;-79
2023/01/15 03:28:01;;;;;;;4.72;0.40;;;6.80;99.90;;;;;;5079599;28;20039;-79
2023/01/15 03:30:28;;;;;;;1.75;0.50;;;6.80;99.90;;;;;;5083704;28;20036;-79
2023/01/15 03:32:53;;;;;;;1.95;0.45;;;6.80;99.90;;;;;;5081336;28;20036;-79
2023/01/15 03:35:38;;;;;;;3.28;0.75;;;6.80;99.90;;;;;;5067122;28;20382;-79
2023/01/15 03:38:03;;;;;;;3.33;0.30;;;6.80;99.90;;;;;;5080805;28;20040;-79
2023/01/15 03:40:31;;;;;;;5.63;0.60;;;6.80;99.90;;;;;;5079578;28;20504;-79
2023/01/15 03:45:51;;;;;;;0.90;0.40;;;6.80;99.90;;;;;;5078119;28;20120;-79
2023/01/15 03:48:25;;;;;;;0.65;0.40;;;6.70;99.90;;;;;;5083656;28;20058;-79
2023/01/15 03:51:15;;;;;;;1.48;0.40;;;6.70;99.90;;;;;;5056446;28;20097;-79
2023/01/15 03:53:47;;;;;;;0.88;0.32;;;6.70;99.90;;;;;;5080193;28;20434;-79
2023/01/15 03:56:54;;;;;;;1.95;0.30;;;6.70;99.90;;;;;;5065744;28;20081;-79
2023/01/15 03:59:36;;;;;;;1.00;0.30;;;6.70;99.90;;;;;;5078418;28;20123;-79
2023/01/15 04:02:07;;;;;;;1.15;0.70;;;6.70;99.90;;;;;;5081199;28;21577;-79
2023/01/15 04:04:33;;;;;;;2.05;0.28;;;6.70;99.90;;;;;;5073803;28;20615;-79
2023/01/15 04:06:59;;;;;;;0.28;0.13;;;6.70;99.90;;;;;;5084418;28;20081;-79
2023/01/15 04:09:26;;;;;;;1.67;0.77;;;6.70;99.90;;;;;;5059714;28;20056;-79
2023/01/15 04:11:51;;;;;;;4.65;0.95;;;6.60;99.90;;;;;;5059403;28;20033;-79
2023/01/15 04:14:17;;;;;;;0.65;0.43;;;6.70;99.90;;;;;;5059684;28;20047;-79
2023/01/15 04:16:43;;;;;;;1.27;0.60;;;6.60;99.90;;;;;;5081790;28;20866;-79
2023/01/15 04:19:09;;;;;;;0.98;0.25;;;6.60;99.90;;;;;;5076634;28;20064;-78
2023/01/15 04:21:34;;;;;;;0.65;0.30;;;6.60;99.90;;;;;;5078502;28;20765;-79
2023/01/15 04:24:00;;;;;;;1.15;0.40;;;6.60;99.90;;;;;;5060588;28;20389;-79
2023/01/15 04:26:25;;;;;;;1.75;0.50;;;6.70;99.90;;;;;;5064822;28;20029;-78
2023/01/15 04:28:51;;;;;;;2.33;0.32;;;6.70;99.90;;;;;;5058481;28;20485;-79
2023/01/15 04:31:17;;;;;;;3.25;1.02;;;6.60;99.90;;;;;;5064502;28;20036;-79
2023/01/15 04:33:43;;;;;;;1.10;0.30;;;6.60;99.90;;;;;;5062329;28;20127;-78
2023/01/15 04:36:09;;;;;;;1.15;0.60;;;6.60;99.90;;;;;;5074513;28;20441;-79
2023/01/15 04:38:36;;;;;;;1.20;0.57;;;6.60;99.90;;;;;;5071828;28;20044;-79
2023/01/15 04:44:06;;;;;;;1.88;0.60;;;6.60;99.90;;;;;;5079906;28;20040;-78
2023/01/15 04:46:52;;;;;;;2.35;0.43;;;6.60;99.90;;;;;;5091215;28;20069;-79
2023/01/15 04:49:18;;;;;;;1.52;0.47;;;6.60;99.90;;;;;;5062212;28;20490;-79
2023/01/15 04:51:44;;;;;;;1.60;0.47;;;6.60;99.90;;;;;;5056482;28;20123;-79
2023/01/15 04:54:12;;;;;;;1.30;0.80;;;6.60;99.90;;;;;;5058038;28;20083;-79
2023/01/15 04:56:46;;;;;;;1.98;0.80;;;6.60;99.90;;;;;;5081609;28;20042;-79
2023/01/15 04:59:13;;;;;;;1.52;0.45;;;6.60;99.90;;;;;;5082276;28;20040;-78
2023/01/15 05:01:39;;;;;;;2.13;0.50;;;6.60;99.90;;;;;;5074732;28;20044;-78
2023/01/15 05:04:07;;;;;;;1.27;0.52;;;6.60;99.90;;;;;;5075073;28;20055;-78
2023/01/15 05:06:32;;;;;;;1.67;0.57;;;6.60;99.90;;;;;;5076914;28;20028;-79
2023/01/15 05:08:59;;;;;;;1.88;0.73;;;6.60;99.90;;;;;;5091493;28;20101;-78
2023/01/15 05:11:25;;;;;;;1.20;0.40;;;6.60;99.90;;;;;;5065172;28;20680;-78
2023/01/15 05:13:51;;;;;;;0.63;0.22;;;6.60;99.90;;;;;;5081836;28;20066;-78
2023/01/15 05:16:19;;;;;;;0.50;0.35;;;6.50;99.90;;;;;;5078125;28;20048;-78
2023/01/15 05:18:46;;;;;;;1.83;0.28;;;6.50;99.90;;;;;;5056675;28;20614;-79
2023/01/15 05:21:22;;;;;;;0.70;0.20;;;6.50;99.90;;;;;;5078836;28;20078;-78
2023/01/15 05:23:50;;;;;;;1.05;0.30;;;6.50;99.90;;;;;;5080648;28;20090;-79
2023/01/15 05:26:17;;;;;;;2.95;0.40;;;6.50;99.90;;;;;;5063197;28;20036;-78
2023/01/15 05:28:43;;;;;;;2.53;0.60;;;6.50;99.90;;;;;;5080777;28;20078;-79
2023/01/15 05:31:11;;;;;;;0.60;0.32;;;6.50;99.90;;;;;;5060265;28;20074;-78
2023/01/15 05:33:37;;;;;;;3.60;0.70;;;6.40;99.90;;;;;;5073196;28;20044;-78
2023/01/15 05:36:05;;;;;;;2.72;0.70;;;6.40;99.90;;;;;;5064114;28;20040;-78
2023/01/15 05:38:31;;;;;;;5.55;0.50;;;6.40;99.90;;;;;;5064397;28;20036;-78
2023/01/15 05:40:57;;;;;;;1.33;0.35;;;6.40;99.90;;;;;;5058565;28;20703;-79
2023/01/15 05:43:22;;;;;;;2.53;0.57;;;6.40;99.90;;;;;;5080249;28;20032;-79
2023/01/15 05:45:48;;;;;;;5.65;0.45;;;6.30;99.90;;;;;;5076181;28;20038;-79
2023/01/15 05:48:14;;;;;;;1.98;0.20;;;6.30;99.90;;;;;;5080453;28;20036;-79
2023/01/15 05:50:39;;;;;;;4.97;1.42;;;6.30;99.90;;;;;;5055831;28;20058;-79
2023/01/15 05:53:06;;;;;;;0.43;0.20;;;6.30;99.90;;;;;;5061497;28;20102;-80
2023/01/15 05:55:32;;;;;;;2.03;0.57;;;6.30;99.90;;;;;;5057010;28;20047;-78
2023/01/15 05:57:58;;;;;;;5.20;0.60;;;6.30;99.90;;;;;;5073216;28;20032;-79
2023/01/15 06:00:24;;;;;;;2.15;0.50;;;6.20;99.90;;;;;;5077757;28;20047;-78
2023/01/15 06:02:50;;;;;;;3.25;0.77;;;6.20;99.90;;;;;;5073370;28;20058;-78
2023/01/15 06:05:19;;;;;;;2.17;0.45;;;6.20;99.90;;;;;;5076667;28;20051;-79
2023/01/15 06:07:51;;;;;;;0.45;0.45;;;6.20;99.90;;;;;;5057646;28;20090;-79
2023/01/15 06:10:17;;;;;;;3.85;0.68;;;6.20;99.90;;;;;;5079883;28;20040;-78
2023/01/15 06:12:43;;;;;;;1.85;0.50;;;6.20;99.90;;;;;;5077534;28;20082;-78
2023/01/15 06:15:10;;;;;;;0.35;0.20;;;6.20;99.90;;;;;;5072986;28;20080;-78
2023/01/15 06:17:36;;;;;;;3.92;0.50;;;6.20;99.90;;;;;;5054485;28;20053;-78
2023/01/15 06:20:02;;;;;;;3.60;0.85;;;6.20;99.90;;;;;;5104238;28;20036;-78
2023/01/15 06:22:28;;;;;;;1.15;0.60;;;6.20;99.90;;;;;;5058182;28;20162;-78
2023/01/15 06:24:54;;;;;;;0.52;0.30;;;6.20;99.90;;;;;;5077743;28;20119;-79
2023/01/15 06:27:19;;;;;;;0.65;0.30;;;6.20;99.90;;;;;;5075129;28;20087;-78
2023/01/15 06:29:45;;;;;;;2.97;0.55;;;6.20;99.90;;;;;;5077215;28;20038;-78
2023/01/15 06:32:11;;;;;;;0.90;0.30;;;6.20;99.90;;;;;;5073333;28;20040;-79
2023/01/15 06:34:36;;;;;;;5.63;1.20;;;6.10;99.90;;;;;;5058075;28;20075;-78
2023/01/15 06:37:02;;;;;;;1.75;0.80;;;6.10;99.90;;;;;;5073176;28;20044;-78
2023/01/15 06:39:28;;;;;;;0.80;0.45;;;6.10;99.90;;;;;;5051496;28;20562;-78
2023/01/15 06:47:22;;;;;;;2.50;0.73;;;6.10;99.90;;;;;;5077617;28;20037;-78
2023/01/15 06:49:56;;;;;;;1.13;0.45;;;6.10;99.90;;;;;;5058341;28;20090;-78
2023/01/15 06:52:23;;;;;;;2.85;0.32;;;6.00;99.90;;;;;;5060346;28;20512;-79
2023/01/15 06:54:48;;;;;;;2.00;0.40;;;6.00;99.90;;;;;;5074460;28;20420;-78
2023/01/15 06:57:14;;;;;;;0.73;0.50;;;6.00;99.90;;;;;;5075210;28;20454;-78
2023/01/15 06:59:40;;;;;;;3.67;0.35;;;6.00;99.90;;;;;;5075795;28;20052;-78
2023/01/15 07:02:06;;;;;;;2.05;0.50;;;6.00;99.90;;;;;;5059409;28;20413;-78
2023/01/15 07:04:31;;;;;;;1.20;0.22;;;5.90;99.90;;;;;;5072921;28;20077;-78
2023/01/15 07:06:57;;;;;;;1.15;0.50;;;6.00;99.90;;;;;;5078494;28;20032;-78
2023/01/15 07:09:23;;;;;;;1.52;0.70;;;6.00;99.90;;;;;;5077199;28;20086;-78
2023/01/15 07:11:48;;;;;;;2.28;0.68;;;6.00;99.90;;;;;;5077187;28;20189;-78
2023/01/15 07:14:19;;;;;;;3.35;0.47;;;5.90;99.90;;;;;;5076542;28;20032;-78
2023/01/15 07:16:46;;;;;;;3.38;0.65;;;6.00;99.90;;;;;;5081912;28;20073;-78
2023/01/15 07:19:12;;;;;;;0.45;0.30;;;5.90;99.90;;;;;;5077378;28;20070;-78
2023/01/15 07:21:37;;;;;;;0.15;0.10;;;5.90;99.90;;;;;;5082183;28;20071;-78
2023/01/15 07:24:03;;;;;;;1.55;0.30;;;5.90;99.90;;;;;;5078656;28;20040;-79
2023/01/15 07:26:29;;;;;;;0.65;0.47;;;5.90;99.90;;;;;;5070693;28;20431;-78
2023/01/15 07:28:55;;;;;;;0.65;0.38;;;5.90;99.90;;;;;;5075604;28;20067;-78
2023/01/15 07:31:20;;;;;;;2.20;0.45;;;5.80;99.90;;;;;;5078951;28;20039;-79
2023/01/15 07:33:46;;;;;;;6.53;0.75;;;5.80;99.90;;;;;;5062323;28;20044;-78
2023/01/15 07:36:12;;;;;;;1.35;0.40;;;5.80;99.90;;;;;;5075881;28;20044;-78
2023/01/15 07:38:37;;;;;;;2.70;0.38;;;5.80;99.90;;;;;;5091361;28;20040;-78
2023/01/15 07:52:00;;;;;;;5.03;0.85;;;5.80;99.90;;;;;;5075217;28;20036;-78
2023/01/15 07:54:26;;;;;;;0.70;0.25;;;5.80;99.90;;;;;;5061129;28;20050;-78
2023/01/15 07:56:52;;;;;;;2.90;0.30;;;5.80;99.90;;;;;;5074511;28;20040;-78
2023/01/15 07:59:18;;;;;;;3.65;0.95;;;5.70;99.90;;;;;;5076453;28;20481;-78
2023/01/15 08:01:44;;;;;;;0.82;0.30;;;5.80;99.90;;;;;;5059830;28;20044;-78
2023/01/15 08:04:10;;;;;;;0.20;0.20;;;5.70;99.90;;;;;;5062959;28;20029;-78
2023/01/15 08:06:36;;;;;;;1.27;0.30;;;5.70;99.90;;;;;;5058024;28;20481;-84
2023/01/15 08:09:02;;;;;;;0.55;0.22;;;5.80;99.90;;;;;;5069256;28;20049;-78
2023/01/15 08:16:56;;;;;;;1.63;0.75;;;5.80;99.90;;;;;;5087717;28;20498;-78
2023/01/15 08:19:24;;;;;;;0.75;0.20;;;5.80;99.90;;;;;;5067531;28;20039;-78
2023/01/15 08:21:50;;;;;;;0.13;0.10;;;5.80;99.90;;;;;;5078035;28;20540;-78
2023/01/15 08:24:15;;;;;;;2.33;0.22;;;5.80;99.90;;;;;;5078971;28;20143;-78
2023/01/15 08:26:41;;;;;;;1.08;0.32;;;5.80;99.90;;;;;;5072917;28;20588;-78
2023/01/15 08:29:07;;;;;;;0.60;0.30;;;5.80;99.90;;;;;;5075758;28;20064;-78
2023/01/15 08:31:32;;;;;;;5.18;1.63;;;5.80;99.90;;;;;;5061913;28;20085;-77
2023/01/15 08:33:58;;;;;;;0.98;0.55;;;5.80;99.90;;;;;;5068996;28;20029;-78
2023/01/15 08:36:23;;;;;;;0.73;0.40;;;5.80;99.90;;;;;;5058738;28;20058;-78
2023/01/15 08:38:49;;;;;;;3.03;0.75;;;5.80;99.90;;;;;;5082674;28;20397;-78
2023/01/15 08:41:15;;;;;;;2.85;0.35;;;5.80;99.90;;;;;;5075981;28;20047;-78
2023/01/15 08:43:41;;;;;;;0.77;0.30;;;5.80;99.90;;;;;;5071355;28;20907;-78
2023/01/15 08:46:07;;;;;;;0.35;0.30;;;5.90;99.90;;;;;;5063085;28;20490;-78
2023/01/15 08:48:33;;;;;;;0.05;0.05;;;5.90;99.90;;;;;;5071946;28;21005;-78
2023/01/15 08:51:02;;;;;;;1.55;0.60;;;6.00;99.90;;;;;;5076081;28;20043;-78
2023/01/15 08:53:28;;;;;;;1.13;0.10;;;6.00;99.90;;;;;;5053483;28;20070;-80
2023/01/15 08:55:54;;;;;;;0.05;0.05;;;6.10;99.90;;;;;;5076757;28;20047;-78
2023/01/15 08:58:19;;;;;;;1.52;0.40;;;6.20;99.90;;;;;;5063455;28;20033;-78
2023/01/15 09:00:47;;;;;;;2.95;0.80;;;6.20;99.90;;;;;;5081002;28;20051;-84
2023/01/15 09:03:13;;;;;;;1.00;0.32;;;6.20;99.90;;;;;;5074161;28;20439;-81
2023/01/15 09:05:38;;;;;;;0.60;0.22;;;6.20;99.90;;;;;;5090594;27;20119;-78
2023/01/15 09:08:05;;;;;;;1.33;0.30;;;6.20;99.90;;;;;;5072668;28;20522;-78
2023/01/15 09:10:31;;;;;;;2.00;0.43;;;6.10;99.90;;;;;;5070512;28;20044;-79
2023/01/15 09:13:01;;;;;;;3.10;1.00;;;6.10;99.90;;;;;;5075287;28;20448;-78
2023/01/15 09:15:28;;;;;;;0.80;0.55;;;6.10;99.90;;;;;;5057882;28;20039;-79
2023/01/15 09:17:55;;;;;;;1.20;0.73;;;6.00;99.90;;;;;;5069589;28;20037;-80
2023/01/15 09:20:20;;;;;;;3.50;0.43;;;6.00;99.90;;;;;;5069092;28;20039;-78
2023/01/15 09:22:47;;;;;;;2.33;0.32;;;5.90;99.90;;;;;;5077771;28;20089;-79
2023/01/15 09:25:15;;;;;;;1.02;0.45;;;5.80;99.90;;;;;;5081393;28;20062;-79
2023/01/15 09:27:41;;;;;;;2.75;1.25;;;5.70;99.90;;;;;;5064200;28;20055;-78
2023/01/15 09:30:09;;;;;;;2.38;0.52;;;5.60;99.90;;;;;;5072096;28;20037;-79
2023/01/15 09:32:34;;;;;;;1.60;0.63;;;5.50;99.90;;;;;;5054614;28;20047;-78
2023/01/15 09:35:01;;;;;;;0.50;0.40;;;5.40;99.90;;;;;;5066952;28;20036;-79
2023/01/15 09:37:26;;;;;;;1.70;0.80;;;5.40;99.90;;;;;;5066722;28;20048;-78
2023/01/15 09:39:52;;;;;;;0.32;0.30;;;5.40;99.90;;;;;;5062741;28;20482;-78
2023/01/15 09:42:45;;;;;;;17.33;7.55;;;5.40;99.90;;;;;;5064854;28;20036;-78
2023/01/15 09:45:25;;;;;;;9.70;5.22;;;5.40;99.90;;;;;;5100573;27;20039;-78
2023/01/15 09:48:15;;;;;;;2.13;1.08;;;5.40;99.90;;;;;;5067780;28;20037;-78
2023/01/15 09:51:00;;;;;;;0.90;0.82;;;5.50;99.90;;;;;;5068972;28;20490;-78
2023/01/15 09:53:55;;;;;;;3.25;0.90;;;5.60;99.90;;;;;;5051086;28;20047;-79
2023/01/15 09:56:27;;;;;;;1.95;1.35;;;5.60;99.90;;;;;;5096418;27;20476;-78
2023/01/15 09:58:54;;;;;;;0.80;0.47;;;5.60;99.90;;;;;;5059065;28;20036;-79
2023/01/15 10:01:28;;;;;;;0.50;0.28;;;5.60;99.90;;;;;;5064942;28;20048;-79
2023/01/15 10:04:33;;;;;;;0.85;0.45;;;5.70;99.90;;;;;;5067695;28;20036;-78
2023/01/15 10:07:21;;;;;;;0.93;0.60;;;5.70;99.90;;;;;;5057251;28;20040;-78
2023/01/15 10:10:04;;;;;;;1.13;0.40;;;5.80;99.90;;;;;;5050945;28;20060;-79
2023/01/15 10:12:34;;;;;;;1.25;0.32;;;5.80;99.90;;;;;;5076744;28;20127;-79
2023/01/15 10:15:24;;;;;;;0.63;0.40;;;5.80;99.90;;;;;;5055717;28;20600;-78
2023/01/15 10:17:54;;;;;;;0.40;0.22;;;5.80;99.90;;;;;;5052950;28;20559;-78
2023/01/15 10:20:39;;;;;;;0.75;0.30;;;5.80;99.90;;;;;;5054493;28;20043;-78
2023/01/15 10:23:42;;;;;;;1.02;0.57;;;5.80;99.90;;;;;;5067780;28;20124;-83
2023/01/15 10:26:31;;;;;;;1.42;0.45;;;5.80;99.90;;;;;;5066609;28;20118;-78
2023/01/15 10:29:00;;;;;;;0.75;0.30;;;5.90;99.90;;;;;;5049719;28;20029;-78
2023/01/15 10:31:50;;;;;;;1.23;0.50;;;5.90;99.90;;;;;;5051652;28;20044;-78
2023/01/15 10:34:34;;;;;;;1.30;0.63;;;6.00;99.90;;;;;;5060901;28;20048;-78
2023/01/15 10:37:09;;;;;;;1.05;0.38;;;6.00;99.90;;;;;;5081636;28;20127;-78
2023/01/15 10:39:58;;;;;;;0.68;0.28;;;6.00;99.90;;;;;;5056165;28;20036;-78
2023/01/15 10:42:26;;;;;;;1.23;0.30;;;5.90;99.90;;;;;;5077289;28;20040;-79
2023/01/15 10:45:19;;;;;;;4.05;0.63;;;5.70;99.90;;;;;;5068606;28;20048;-84
2023/01/15 10:47:51;;;;;;;7.43;0.95;;;5.60;99.90;;;;;;5063003;28;20170;-79
2023/01/15 10:50:19;;;;;;;1.77;0.73;;;5.60;99.90;;;;;;5078871;28;20644;-78
2023/01/15 10:53:07;;;;;;;2.42;0.80;;;5.60;99.90;;;;;;5083320;28;20540;-80
2023/01/15 10:55:51;;;;;;;3.45;1.35;;;5.60;99.90;;;;;;5054697;28;20036;-80
2023/01/15 10:58:54;;;;;;;2.35;0.35;;;5.60;99.90;;;;;;5082053;28;20032;-80
2023/01/15 11:01:22;;;;;;;1.55;0.38;;;5.60;99.90;;;;;;5084919;28;20046;-79
2023/01/15 11:03:48;;;;;;;2.58;0.60;;;5.60;99.90;;;;;;5076334;28;20123;-79
2023/01/15 11:06:20;;;;;;;3.45;0.82;;;5.70;99.90;;;;;;5056887;28;20493;-80
2023/01/15 11:08:50;;;;;;;2.97;0.63;;;5.70;99.90;;;;;;5076320;28;20040;-79
2023/01/15 11:20:43;;;;;;;0.70;0.40;;;6.00;99.90;;;;;;5079112;28;20039;-79
2023/01/15 11:23:18;;;;;;;0.65;0.22;;;6.00;99.90;;;;;;5083418;28;20036;-80
2023/01/15 11:25:59;;;;;;;2.40;0.43;;;6.10;99.90;;;;;;5056973;28;20040;-80
2023/01/15 11:28:42;;;;;;;3.78;0.40;;;6.10;99.90;;;;;;5074530;28;20141;-79
2023/01/15 11:31:09;;;;;;;3.20;0.88;;;6.30;99.90;;;;;;5079344;28;20043;-80
2023/01/15 11:33:36;;;;;;;3.42;0.50;;;6.40;99.90;;;;;;5081296;28;20120;-80
2023/01/15 11:36:18;;;;;;;0.45;0.20;;;6.40;99.90;;;;;;5076480;28;20048;-80
2023/01/15 11:38:46;;;;;;;3.75;1.05;;;6.50;99.90;;;;;;5075375;28;20085;-79
2023/01/15 11:50:42;;;;;;;4.22;1.17;;;6.60;99.90;;;;;;5075417;28;20032;-79
2023/01/15 11:52:36;;;;;;;1.80;0.88;;;6.80;99.90;;;;;;5083209;28;20040;-79
2023/01/15 11:55:03;;;;;;;1.60;1.10;;;6.80;99.90;;;;;;5066796;28;20268;-78
2023/01/15 11:57:31;;;;;;;6.45;1.73;;;6.70;99.90;;;;;;5077333;28;20040;-79
2023/01/15 11:59:58;;;;;;;2.35;0.90;;;6.80;99.90;;;;;;5057237;28;20274;-79
2023/01/15 12:02:47;;;;;;;2.28;0.57;;;6.80;99.90;;;;;;5062079;28;20493;-79
2023/01/15 12:05:16;;;;;;;2.03;0.70;;;6.80;99.90;;;;;;5059295;28;20175;-79
2023/01/15 12:07:44;;;;;;;0.75;0.20;;;6.80;99.90;;;;;;5082616;28;20036;-79
2023/01/15 12:13:40;;;;;;;2.03;0.47;;;6.90;99.90;;;;;;5072525;28;20044;-79
2023/01/15 12:16:05;;;;;;;;;;;6.90;99.90;;;;;;5066347;28;20136;-79
2023/01/15 12:18:55;;;;;;;0.82;0.50;;;6.90;99.90;;;;;;5107969;27;19997;-79
2023/01/15 12:22:07;;;;;;;2.25;0.30;;;6.90;99.90;;;;;;5082866;28;20082;-79
2023/01/15 12:24:48;;;;;;;2.70;0.85;;;7.00;99.90;;;;;;5070472;28;20123;-80
2023/01/15 12:27:42;;;;;;;0.95;0.50;;;7.00;99.90;;;;;;5056142;28;20135;-80
2023/01/15 12:30:16;;;;;;;2.60;0.77;;;7.00;99.90;;;;;;5064729;28;20378;-79
2023/01/15 12:32:51;;;;;;;0.82;0.30;;;7.00;99.90;;;;;;5079949;28;20484;-79
2023/01/15 12:35:31;;;;;;;1.75;0.82;;;7.10;99.90;;;;;;5071661;28;20681;-79
2023/01/15 12:38:23;;;;;;;1.75;0.43;;;7.00;99.90;;;;;;5057520;28;20040;-79
2023/01/15 12:40:55;;;;;;;3.13;1.08;;;7.00;99.90;;;;;;5082562;28;20652;-78
2023/01/15 12:46:14;;;;;;;4.07;0.73;;;7.10;99.90;;;;;;5080295;28;20033;-79
2023/01/15 12:48:53;;;;;;;1.55;0.50;;;7.10;99.90;;;;;;5071495;28;20036;-79
2023/01/15 12:51:25;;;;;;;2.58;0.40;;;7.20;99.90;;;;;;5064425;28;20115;-78
2023/01/15 12:54:00;;;;;;;7.57;0.57;;;7.20;99.90;;;;;;5078758;28;20731;-79
2023/01/15 12:56:49;;;;;;;2.65;0.77;;;7.20;99.90;;;;;;5063044;28;20040;-79
2023/01/15 12:59:28;;;;;;;1.00;0.50;;;7.20;99.90;;;;;;5070678;28;20079;-79
2023/01/15 13:02:13;;;;;;;3.67;0.70;;;7.30;99.90;;;;;;5076804;28;20497;-79
2023/01/15 13:05:11;;;;;;;3.10;0.80;;;7.30;99.90;;;;;;5077811;28;20048;-79
2023/01/15 13:07:49;;;;;;;1.00;0.47;;;7.30;99.90;;;;;;5078691;28;20509;-79
2023/01/15 13:10:26;;;;;;;3.03;0.65;;;7.30;99.90;;;;;;5053995;28;20045;-79
2023/01/15 13:12:57;;;;;;;2.35;0.55;;;7.30;99.90;;;;;;5053236;28;20043;-80
2023/01/15 13:15:29;;;;;;;0.82;0.47;;;7.30;99.90;;;;;;5072154;28;20102;-79
2023/01/15 13:18:20;;;;;;;1.48;0.22;;;7.30;99.90;;;;;;5075048;28;20682;-78
2023/01/15 13:20:50;;;;;;;2.28;0.30;;;7.30;99.90;;;;;;5061151;28;20048;-79
2023/01/15 13:23:24;;;;;;;1.70;0.63;;;7.30;99.90;;;;;;5069660;28;20044;-79
2023/01/15 13:26:19;;;;;;;4.68;0.30;;;7.20;99.90;;;;;;5096597;28;20067;-79
2023/01/15 13:29:04;;;;;;;1.58;0.28;;;7.20;99.90;;;;;;5054189;28;20040;-79
2023/01/15 13:32:08;;;;;;;1.73;0.50;;;7.30;99.90;;;;;;5058034;28;20038;-79
2023/01/15 13:34:41;;;;;;;1.00;0.43;;;7.30;99.90;;;;;;5068499;28;20409;-79
2023/01/15 13:37:13;;;;;;;2.40;1.05;;;7.30;99.90;;;;;;5078467;28;21427;-78
2023/01/15 13:39:42;;;;;;;1.40;0.65;;;7.30;99.90;;;;;;5079191;28;21831;-78
2023/01/15 13:42:32;;;;;;;2.05;0.65;;;7.30;99.90;;;;;;5051218;28;20254;-78
2023/01/15 13:45:29;;;;;;;6.30;1.52;;;7.30;99.90;;;;;;5076987;28;20082;-79
2023/01/15 13:48:12;;;;;;;0.80;0.25;;;7.30;99.90;;;;;;5068663;28;20036;-79
2023/01/15 13:50:53;;;;;;;1.75;0.40;;;7.20;99.90;;;;;;5078255;28;20032;-79
2023/01/15 13:53:33;;;;;;;3.15;0.88;;;7.10;99.90;;;;;;5081230;28;20039;-79
2023/01/15 13:56:08;;;;;;;2.25;0.30;;;7.10;99.90;;;;;;5054814;28;20036;-79
2023/01/15 13:58:39;;;;;;;0.90;0.40;;;7.00;99.90;;;;;;5079452;28;20071;-80
2023/01/15 14:01:21;;;;;;;1.58;0.43;;;6.80;99.90;;;;;;5071169;28;20040;-80
2023/01/15 14:04:16;;;;;;;1.08;0.50;;;6.60;99.90;;;;;;5079349;28;20040;-80
2023/01/15 14:06:45;;;;;;;1.13;0.50;;;6.40;99.90;;;;;;5075962;28;20067;-81
2023/01/15 14:09:25;;;;;;;0.88;0.35;;;6.30;99.90;;;;;;5076781;28;20086;-80
2023/01/15 14:12:06;;;;;;;0.20;0.10;;;6.10;99.90;;;;;;5073283;28;20115;-80
2023/01/15 14:15:00;;;;;;;3.83;0.40;;;6.00;99.90;;;;;;5078339;28;20063;-81
2023/01/15 14:17:44;;;;;;;0.30;0.20;;;5.90;99.90;;;;;;5078462;28;20274;-80
2023/01/15 14:20:21;;;;;;;0.98;0.30;;;5.90;99.90;;;;;;5072941;28;20482;-80